createdAt,value
2022-10-13T00:01:20.896Z,9.90
2022-10-13T00:03:48.357Z,9.80
2022-10-13T00:06:23.299Z,9.70
2022-10-13T00:08:50.756Z,9.70
2022-10-13T00:11:18.985Z,9.80
2022-10-13T00:13:46.903Z,9.70
2022-10-13T00:16:16.560Z,9.80
2022-10-13T00:18:43.929Z,9.80
2022-10-13T00:21:14.629Z,9.80
2022-10-13T00:23:41.963Z,9.80
2022-10-13T00:26:11.409Z,9.80
2022-10-13T00:28:39.657Z,9.80
2022-10-13T00:31:38.771Z,9.70
2022-10-13T00:34:06.246Z,9.70
2022-10-13T00:36:33.180Z,9.60
2022-10-13T00:39:00.116Z,9.60
2022-10-13T00:41:27.215Z,9.60
2022-10-13T00:44:00.002Z,9.60
2022-10-13T00:46:30.248Z,9.50
2022-10-13T00:49:06.978Z,9.60
2022-10-13T00:51:38.179Z,9.60
2022-10-13T00:54:05.886Z,9.60
2022-10-13T00:56:33.565Z,9.60
2022-10-13T00:59:01.168Z,9.70
2022-10-13T01:01:28.589Z,9.60
2022-10-13T01:03:55.959Z,9.70
2022-10-13T01:06:23.991Z,9.80
2022-10-13T01:08:51.290Z,9.80
2022-10-13T01:11:31.512Z,9.90
2022-10-13T01:14:35.999Z,9.90
2022-10-13T01:17:32.832Z,9.90
2022-10-13T01:20:37.478Z,10.00
2022-10-13T01:23:22.792Z,10.00
2022-10-13T01:26:20.710Z,10.00
2022-10-13T01:29:28.244Z,10.00
2022-10-13T01:32:11.842Z,10.00
2022-10-13T01:35:00.622Z,10.00
2022-10-13T01:37:50.857Z,10.00
2022-10-13T01:40:36.630Z,10.00
2022-10-13T01:43:15.479Z,9.90
2022-10-13T01:45:54.163Z,9.90
2022-10-13T01:48:21.361Z,9.80
2022-10-13T01:50:53.201Z,9.80
2022-10-13T01:53:21.565Z,9.70
2022-10-13T01:55:56.040Z,9.60
2022-10-13T01:58:24.924Z,9.60
2022-10-13T02:01:12.514Z,9.60
2022-10-13T02:03:58.564Z,9.60
2022-10-13T02:06:30.269Z,9.60
2022-10-13T02:09:22.722Z,9.50
2022-10-13T02:12:20.231Z,9.60
2022-10-13T02:14:49.585Z,9.50
2022-10-13T02:17:17.773Z,9.50
2022-10-13T02:19:45.641Z,9.40
2022-10-13T02:22:17.881Z,9.40
2022-10-13T02:24:45.213Z,9.50
2022-10-13T02:27:12.970Z,9.50
2022-10-13T02:30:09.492Z,9.50
2022-10-13T02:32:36.487Z,9.60
2022-10-13T02:35:03.568Z,9.60
2022-10-13T02:37:30.471Z,9.50
2022-10-13T02:39:57.313Z,9.60
2022-10-13T02:42:24.331Z,9.60
2022-10-13T02:44:55.613Z,9.50
2022-10-13T02:47:22.593Z,9.60
2022-10-13T02:49:49.469Z,9.50
2022-10-13T02:52:16.628Z,9.50
2022-10-13T02:54:44.923Z,9.60
2022-10-13T02:57:11.819Z,9.70
2022-10-13T02:59:38.793Z,9.70
2022-10-13T03:02:05.682Z,9.70
2022-10-13T03:04:33.245Z,9.80
2022-10-13T03:07:00.370Z,9.80
2022-10-13T03:09:27.418Z,9.80
2022-10-13T03:11:54.425Z,9.90
2022-10-13T03:14:21.316Z,9.80
2022-10-13T03:16:48.230Z,9.90
2022-10-13T03:19:16.810Z,9.90
2022-10-13T03:21:43.765Z,9.90
2022-10-13T03:24:10.629Z,10.00
2022-10-13T03:26:37.523Z,10.00
2022-10-13T03:29:04.387Z,10.00
2022-10-13T03:31:31.389Z,10.00
2022-10-13T03:34:02.252Z,10.00
2022-10-13T03:36:29.143Z,10.00
2022-10-13T03:38:56.122Z,10.00
2022-10-13T03:41:23.096Z,10.10
2022-10-13T03:43:50.899Z,10.10
2022-10-13T03:46:19.170Z,10.10
2022-10-13T03:48:47.719Z,10.10
2022-10-13T03:51:17.570Z,10.10
2022-10-13T03:53:49.880Z,10.10
2022-10-13T03:56:19.256Z,10.20
2022-10-13T03:58:54.346Z,10.10
2022-10-13T04:01:23.353Z,10.10
2022-10-13T04:03:52.636Z,10.10
2022-10-13T04:06:19.565Z,10.00
2022-10-13T04:08:46.791Z,10.00
2022-10-13T04:11:15.470Z,10.00
2022-10-13T04:13:44.251Z,10.00
2022-10-13T04:16:17.290Z,10.10
2022-10-13T04:18:45.555Z,10.10
2022-10-13T04:21:14.939Z,10.10
2022-10-13T04:23:42.186Z,10.10
2022-10-13T04:26:19.273Z,10.10
2022-10-13T04:28:48.340Z,10.10
2022-10-13T04:31:15.704Z,10.10
2022-10-13T04:33:42.781Z,10.10
2022-10-13T04:36:13.304Z,10.00
2022-10-13T04:38:40.588Z,10.00
2022-10-13T04:41:08.481Z,9.90
2022-10-13T04:43:35.754Z,10.00
2022-10-13T04:46:04.963Z,10.00
2022-10-13T04:48:32.000Z,10.10
2022-10-13T04:51:09.994Z,10.10
2022-10-13T04:53:37.196Z,10.10
2022-10-13T04:56:09.957Z,10.20
2022-10-13T04:58:38.160Z,10.20
2022-10-13T05:01:07.457Z,10.20
2022-10-13T05:03:34.908Z,10.20
2022-10-13T05:06:01.847Z,10.20
2022-10-13T05:08:29.078Z,10.30
2022-10-13T05:11:01.971Z,10.30
2022-10-13T05:13:30.485Z,10.30
2022-10-13T05:15:57.769Z,10.40
2022-10-13T05:18:25.160Z,10.40
2022-10-13T05:20:52.040Z,10.40
2022-10-13T05:23:19.000Z,10.40
2022-10-13T05:25:45.888Z,10.40
2022-10-13T05:28:18.042Z,10.50
2022-10-13T05:30:44.942Z,10.50
2022-10-13T05:33:11.957Z,10.50
2022-10-13T05:35:38.940Z,10.40
2022-10-13T05:38:05.881Z,10.40
2022-10-13T05:40:33.607Z,10.40
2022-10-13T05:43:01.430Z,10.40
2022-10-13T05:45:32.503Z,10.40
2022-10-13T05:47:59.392Z,10.40
2022-10-13T05:50:26.340Z,10.40
2022-10-13T05:52:53.280Z,10.40
2022-10-13T05:55:20.237Z,10.40
2022-10-13T05:57:52.151Z,10.40
2022-10-13T06:00:20.731Z,10.40
2022-10-13T06:02:59.057Z,10.50
2022-10-13T06:05:27.409Z,10.50
2022-10-13T06:07:56.150Z,10.60
2022-10-13T06:10:23.625Z,10.60
2022-10-13T06:12:50.879Z,10.70
2022-10-13T06:15:17.863Z,10.70
2022-10-13T06:17:44.733Z,10.70
2022-10-13T06:20:11.750Z,10.80
2022-10-13T06:22:39.237Z,10.80
2022-10-13T06:25:07.470Z,10.90
2022-10-13T06:27:34.654Z,10.90
2022-10-13T06:30:01.578Z,10.90
2022-10-13T06:32:28.560Z,10.90
2022-10-13T06:34:56.512Z,10.90
2022-10-13T06:37:27.357Z,11.00
2022-10-13T06:39:54.864Z,11.00
2022-10-13T06:42:22.069Z,11.00
2022-10-13T06:45:08.379Z,11.00
2022-10-13T06:47:35.297Z,11.00
2022-10-13T06:50:02.196Z,11.00
2022-10-13T06:52:29.150Z,11.10
2022-10-13T06:54:56.004Z,11.10
2022-10-13T06:57:22.928Z,11.10
2022-10-13T06:59:50.165Z,11.10
2022-10-13T07:02:17.339Z,11.20
2022-10-13T07:04:44.395Z,11.30
2022-10-13T07:07:11.290Z,11.30
2022-10-13T07:09:38.215Z,11.30
2022-10-13T07:12:05.242Z,11.30
2022-10-13T07:14:32.139Z,11.40
2022-10-13T07:16:59.055Z,11.40
2022-10-13T07:19:26.184Z,11.40
2022-10-13T07:21:53.313Z,11.40
2022-10-13T07:24:23.989Z,11.40
2022-10-13T07:26:50.973Z,11.50
2022-10-13T07:29:17.930Z,11.50
2022-10-13T07:31:45.804Z,11.60
2022-10-13T07:34:14.116Z,11.60
2022-10-13T07:36:41.807Z,11.60
2022-10-13T07:39:09.587Z,11.70
2022-10-13T07:41:37.190Z,11.80
2022-10-13T07:44:04.234Z,11.90
2022-10-13T07:46:31.170Z,12.00
2022-10-13T07:48:58.317Z,12.00
2022-10-13T07:51:25.365Z,12.10
2022-10-13T07:53:52.437Z,12.10
2022-10-13T07:56:19.377Z,12.20
2022-10-13T07:58:47.560Z,12.20
2022-10-13T08:01:15.318Z,12.20
2022-10-13T08:03:45.702Z,12.30
2022-10-13T08:06:19.683Z,12.30
2022-10-13T08:08:47.342Z,12.40
2022-10-13T08:11:17.496Z,12.50
2022-10-13T08:13:51.856Z,12.60
2022-10-13T08:16:22.534Z,12.70
2022-10-13T08:18:49.690Z,12.80
2022-10-13T08:24:10.940Z,13.00
2022-10-13T08:26:38.319Z,13.10
2022-10-13T08:29:22.336Z,13.10
2022-10-13T08:31:50.805Z,13.30
2022-10-13T08:34:17.867Z,13.40
2022-10-13T08:36:44.909Z,13.50
2022-10-13T08:39:12.186Z,13.50
2022-10-13T08:41:43.883Z,13.60
2022-10-13T08:47:35.608Z,13.80
2022-10-13T08:50:11.502Z,13.90
2022-10-13T08:52:45.299Z,14.10
2022-10-13T08:55:23.066Z,14.20
2022-10-13T08:57:50.443Z,14.10
2022-10-13T09:00:18.848Z,14.10
2022-10-13T09:02:50.125Z,14.10
2022-10-13T09:05:27.497Z,14.30
2022-10-13T09:08:00.143Z,14.60
2022-10-13T09:10:27.280Z,14.80
2022-10-13T09:12:55.964Z,14.90
2022-10-13T09:15:22.959Z,15.00
2022-10-13T09:18:10.034Z,14.80
2022-10-13T09:20:37.011Z,14.70
2022-10-13T09:23:21.445Z,14.70
2022-10-13T09:25:50.981Z,14.40
2022-10-13T09:28:27.726Z,14.40
2022-10-13T09:31:15.795Z,14.50
2022-10-13T09:33:43.345Z,14.60
2022-10-13T09:36:13.129Z,14.60
2022-10-13T09:38:42.529Z,14.60
2022-10-13T09:41:09.445Z,14.70
2022-10-13T09:43:42.917Z,14.70
2022-10-13T09:46:36.268Z,14.80
2022-10-13T09:49:08.075Z,14.90
2022-10-13T09:51:36.874Z,14.90
2022-10-13T09:54:27.701Z,14.90
2022-10-13T09:57:01.262Z,15.00
2022-10-13T09:59:43.123Z,15.00
2022-10-13T10:02:32.695Z,15.00
2022-10-13T10:05:23.261Z,14.90
2022-10-13T10:07:55.346Z,14.90
2022-10-13T10:10:34.875Z,15.00
2022-10-13T10:13:05.172Z,15.10
2022-10-13T10:15:54.667Z,15.10
2022-10-13T10:18:28.424Z,15.10
2022-10-13T10:21:33.457Z,15.00
2022-10-13T10:24:24.740Z,14.90
2022-10-13T10:27:06.177Z,14.80
2022-10-13T10:29:56.032Z,14.90
2022-10-13T10:32:44.115Z,15.00
2022-10-13T10:35:36.018Z,15.00
2022-10-13T10:38:24.775Z,15.50
2022-10-13T10:40:54.493Z,16.20
2022-10-13T10:43:48.768Z,16.80
2022-10-13T10:46:30.473Z,17.00
2022-10-13T10:49:15.527Z,17.10
2022-10-13T10:51:43.186Z,17.30
2022-10-13T10:54:16.071Z,17.30
2022-10-13T10:56:48.845Z,16.80
2022-10-13T10:59:31.435Z,16.70
2022-10-13T11:02:14.801Z,16.50
2022-10-13T11:04:47.054Z,16.40
2022-10-13T11:07:33.845Z,16.40
2022-10-13T11:10:04.126Z,16.50
2022-10-13T11:12:48.022Z,16.70
2022-10-13T11:15:40.604Z,16.70
2022-10-13T11:18:45.041Z,16.80
2022-10-13T11:21:11.936Z,16.70
2022-10-13T11:23:46.098Z,16.60
2022-10-13T11:26:41.361Z,16.70
2022-10-13T11:29:19.353Z,16.80
2022-10-13T11:31:52.969Z,16.90
2022-10-13T11:34:31.793Z,16.90
2022-10-13T11:37:01.879Z,16.80
2022-10-13T11:40:05.542Z,16.60
2022-10-13T11:42:53.324Z,16.70
2022-10-13T11:45:56.885Z,16.60
2022-10-13T11:48:42.759Z,16.50
2022-10-13T11:51:39.209Z,16.40
2022-10-13T11:54:24.744Z,16.50
2022-10-13T11:56:57.355Z,16.60
2022-10-13T11:59:37.877Z,16.70
2022-10-13T12:02:11.482Z,16.80
2022-10-13T12:04:46.651Z,16.80
2022-10-13T12:07:16.253Z,16.70
2022-10-13T12:09:52.541Z,16.80
2022-10-13T12:12:23.785Z,16.70
2022-10-13T12:14:56.978Z,16.70
2022-10-13T12:17:38.922Z,16.70
2022-10-13T12:20:38.234Z,16.70
2022-10-13T12:23:17.269Z,16.60
2022-10-13T12:25:49.023Z,16.70
2022-10-13T12:28:19.442Z,16.90
2022-10-13T12:30:58.993Z,16.90
2022-10-13T12:33:35.648Z,16.90
2022-10-13T12:36:14.592Z,17.10
2022-10-13T12:38:47.179Z,17.30
2022-10-13T12:41:18.528Z,17.40
2022-10-13T12:43:46.212Z,17.40
2022-10-13T12:46:13.142Z,17.30
2022-10-13T12:48:40.322Z,17.60
2022-10-13T12:51:23.398Z,17.60
2022-10-13T12:53:50.369Z,17.80
2022-10-13T12:56:27.235Z,18.10
2022-10-13T12:58:55.240Z,18.30
2022-10-13T13:01:27.235Z,18.50
2022-10-13T13:04:00.456Z,18.80
2022-10-13T13:06:30.177Z,18.90
2022-10-13T13:09:28.348Z,19.00
2022-10-13T13:12:15.851Z,19.00
2022-10-13T13:14:54.887Z,19.10
2022-10-13T13:20:39.843Z,18.70
2022-10-13T13:23:06.706Z,18.90
2022-10-13T13:25:33.641Z,18.90
2022-10-13T13:28:04.423Z,19.10
2022-10-13T13:30:31.397Z,19.70
2022-10-13T13:32:58.298Z,19.60
2022-10-13T13:35:25.277Z,19.40
2022-10-13T13:37:53.090Z,19.40
2022-10-13T13:40:27.698Z,19.20
2022-10-13T13:42:55.317Z,19.40
2022-10-13T13:45:25.502Z,19.80
2022-10-13T13:47:57.959Z,20.10
2022-10-13T13:50:37.395Z,19.70
2022-10-13T13:53:05.191Z,20.00
2022-10-13T13:55:32.210Z,20.10
2022-10-13T13:58:00.497Z,19.80
2022-10-13T14:00:27.595Z,19.40
2022-10-13T14:02:55.995Z,19.30
2022-10-13T14:05:23.024Z,18.90
2022-10-13T14:07:52.654Z,18.70
2022-10-13T14:10:19.541Z,18.70
2022-10-13T14:12:46.418Z,18.70
2022-10-13T14:15:13.306Z,18.60
2022-10-13T14:17:40.186Z,18.20
2022-10-13T14:20:07.825Z,17.80
2022-10-13T14:22:39.026Z,17.50
2022-10-13T14:25:07.206Z,17.40
2022-10-13T14:27:34.993Z,17.30
2022-10-13T14:30:02.914Z,17.10
2022-10-13T14:32:30.045Z,17.00
2022-10-13T14:34:56.990Z,17.00
2022-10-13T14:37:26.718Z,16.90
2022-10-13T14:39:56.043Z,16.90
2022-10-13T14:42:22.945Z,16.90
2022-10-13T14:44:49.818Z,16.90
2022-10-13T14:47:16.751Z,16.80
2022-10-13T14:49:43.668Z,16.70
2022-10-13T14:52:10.800Z,16.70
2022-10-13T14:54:41.236Z,16.60
2022-10-13T14:57:15.581Z,16.50
2022-10-13T14:59:43.074Z,16.40
2022-10-13T15:02:13.916Z,16.30
2022-10-13T15:04:51.381Z,16.30
2022-10-13T15:07:18.795Z,16.20
2022-10-13T15:09:52.726Z,16.10
2022-10-13T15:12:28.175Z,16.10
2022-10-13T15:14:55.126Z,16.10
2022-10-13T15:17:21.992Z,16.10
2022-10-13T15:19:49.066Z,16.00
2022-10-13T15:22:15.916Z,16.00
2022-10-13T15:24:43.533Z,16.00
2022-10-13T15:27:10.784Z,16.00
2022-10-13T15:29:37.696Z,16.00
2022-10-13T15:32:13.037Z,16.00
2022-10-13T15:34:41.481Z,16.00
2022-10-13T15:37:08.345Z,15.90
2022-10-13T15:39:35.272Z,15.90
2022-10-13T15:42:02.760Z,15.90
2022-10-13T15:44:51.022Z,15.90
2022-10-13T15:47:18.160Z,15.90
2022-10-13T15:49:45.147Z,15.90
2022-10-13T15:52:12.035Z,15.80
2022-10-13T15:54:39.009Z,15.80
2022-10-13T15:57:05.908Z,15.80
2022-10-13T15:59:32.837Z,15.80
2022-10-13T16:01:59.686Z,15.80
2022-10-13T16:04:26.570Z,15.80
2022-10-13T16:06:53.444Z,15.70
2022-10-13T16:09:20.442Z,15.70
2022-10-13T16:11:47.363Z,15.70
2022-10-13T16:14:14.256Z,15.70
2022-10-13T16:16:41.126Z,15.60
2022-10-13T16:19:08.620Z,15.60
2022-10-13T16:21:35.656Z,15.50
2022-10-13T16:24:05.157Z,15.50
2022-10-13T16:26:32.057Z,15.40
2022-10-13T16:28:58.979Z,15.40
2022-10-13T16:31:26.208Z,15.30
2022-10-13T16:33:54.463Z,15.20
2022-10-13T16:36:21.412Z,15.10
2022-10-13T16:38:52.937Z,14.90
2022-10-13T16:41:19.946Z,14.70
2022-10-13T16:43:48.010Z,14.60
2022-10-13T16:46:18.279Z,14.50
2022-10-13T16:48:46.384Z,14.50
2022-10-13T16:51:16.211Z,14.40
2022-10-13T16:53:43.174Z,14.30
2022-10-13T16:56:10.229Z,14.30
2022-10-13T16:58:37.187Z,14.20
2022-10-13T17:01:09.181Z,14.20
2022-10-13T17:03:39.938Z,14.10
2022-10-13T17:06:07.225Z,14.00
2022-10-13T17:08:34.458Z,14.00
2022-10-13T17:11:03.713Z,13.90
2022-10-13T17:13:31.939Z,13.80
2022-10-13T17:15:59.430Z,13.70
2022-10-13T17:18:28.022Z,13.60
2022-10-13T17:21:08.332Z,13.60
2022-10-13T17:23:36.132Z,13.50
2022-10-13T17:26:06.929Z,13.40
2022-10-13T17:28:35.185Z,13.40
2022-10-13T17:31:09.540Z,13.30
2022-10-13T17:33:38.097Z,13.20
2022-10-13T17:36:08.047Z,13.20
2022-10-13T17:38:35.132Z,13.10
2022-10-13T17:41:03.874Z,13.00
2022-10-13T17:43:31.888Z,13.00
2022-10-13T17:46:40.565Z,12.90
2022-10-13T17:49:10.943Z,12.90
2022-10-13T17:51:38.391Z,12.90
2022-10-13T17:54:05.395Z,12.90
2022-10-13T17:56:32.657Z,12.90
2022-10-13T17:59:01.874Z,12.90
2022-10-13T18:01:35.012Z,12.90
2022-10-13T18:04:07.805Z,12.80
2022-10-13T18:06:39.915Z,12.80
2022-10-13T18:09:09.732Z,12.80
2022-10-13T18:11:37.183Z,12.80
2022-10-13T18:14:04.241Z,12.80
2022-10-13T18:16:32.337Z,12.80
2022-10-13T18:19:00.578Z,12.80
2022-10-13T18:21:28.164Z,12.80
2022-10-13T18:23:59.591Z,12.70
2022-10-13T18:26:29.031Z,12.70
2022-10-13T18:28:57.022Z,12.70
2022-10-13T18:31:29.242Z,12.70
2022-10-13T18:34:02.449Z,12.70
2022-10-13T18:36:38.750Z,12.70
2022-10-13T18:39:15.369Z,12.70
2022-10-13T18:41:45.561Z,12.70
2022-10-13T18:44:13.103Z,12.70
2022-10-13T18:46:40.642Z,12.70
2022-10-13T18:49:10.543Z,12.70
2022-10-13T18:51:39.710Z,12.70
2022-10-13T18:54:07.549Z,12.70
2022-10-13T18:56:36.914Z,12.70
2022-10-13T18:59:05.846Z,12.70
2022-10-13T19:01:34.470Z,12.70
2022-10-13T19:04:01.699Z,12.70
2022-10-13T19:06:31.981Z,12.70
2022-10-13T19:09:01.252Z,12.70
2022-10-13T19:11:29.835Z,12.70
2022-10-13T19:13:58.185Z,12.70
2022-10-13T19:16:27.326Z,12.70
2022-10-13T19:18:54.276Z,12.70
2022-10-13T19:21:23.397Z,12.70
2022-10-13T19:23:50.446Z,12.70
2022-10-13T19:26:23.957Z,12.70
2022-10-13T19:29:12.302Z,12.70
2022-10-13T19:31:41.424Z,12.70
2022-10-13T19:34:09.606Z,12.70
2022-10-13T19:36:44.681Z,12.70
2022-10-13T19:39:23.576Z,12.70
2022-10-13T19:41:53.004Z,12.60
2022-10-13T19:44:21.101Z,12.60
2022-10-13T19:46:48.817Z,12.60
2022-10-13T19:49:17.719Z,12.60
2022-10-13T19:51:45.674Z,12.60
2022-10-13T19:54:13.249Z,12.60
2022-10-13T19:56:46.719Z,12.70
2022-10-13T19:59:14.439Z,12.70
2022-10-13T20:01:41.647Z,12.70
2022-10-13T20:04:14.367Z,12.70
2022-10-13T20:06:43.697Z,12.60
2022-10-13T20:09:10.614Z,12.70
2022-10-13T20:11:37.483Z,12.60
2022-10-13T20:14:04.617Z,12.60
2022-10-13T20:16:31.568Z,12.60
2022-10-13T20:19:00.236Z,12.60
2022-10-13T20:21:28.865Z,12.60
2022-10-13T20:23:56.777Z,12.60
2022-10-13T20:26:24.242Z,12.60
2022-10-13T20:28:54.365Z,12.60
2022-10-13T20:31:23.045Z,12.60
2022-10-13T20:33:55.841Z,12.60
2022-10-13T20:36:24.722Z,12.60
2022-10-13T20:38:51.747Z,12.50
2022-10-13T20:41:28.474Z,12.50
2022-10-13T20:43:58.068Z,12.40
2022-10-13T20:46:25.543Z,12.30
2022-10-13T20:51:42.638Z,12.30
2022-10-13T20:54:11.586Z,12.30
2022-10-13T20:56:38.502Z,12.20
2022-10-13T20:59:07.680Z,12.30
2022-10-13T21:01:35.464Z,12.20
2022-10-13T21:04:02.438Z,12.30
2022-10-13T21:06:29.387Z,12.30
2022-10-13T21:08:56.600Z,12.30
2022-10-13T21:11:24.846Z,12.30
2022-10-13T21:13:52.597Z,12.20
2022-10-13T21:16:23.033Z,12.20
2022-10-13T21:18:51.556Z,12.30
2022-10-13T21:21:23.586Z,12.20
2022-10-13T21:23:56.590Z,12.20
2022-10-13T21:26:25.151Z,12.30
2022-10-13T21:28:52.450Z,12.30
2022-10-13T21:31:21.528Z,12.30
2022-10-13T21:33:49.082Z,12.30
2022-10-13T21:36:22.061Z,12.30
2022-10-13T21:38:52.543Z,12.30
2022-10-13T21:41:19.591Z,12.30
2022-10-13T21:43:46.727Z,12.30
2022-10-13T21:46:13.607Z,12.30
2022-10-13T21:48:43.422Z,12.20
2022-10-13T21:51:11.358Z,12.20
2022-10-13T21:53:38.252Z,12.20
2022-10-13T21:56:09.758Z,12.20
2022-10-13T21:58:36.726Z,12.20
2022-10-13T22:01:04.208Z,12.20
2022-10-13T22:03:32.165Z,12.20
2022-10-13T22:06:03.328Z,12.20
2022-10-13T22:08:38.389Z,12.20
2022-10-13T22:11:14.697Z,12.30
2022-10-13T22:13:41.605Z,12.20
2022-10-13T22:16:18.156Z,12.20
2022-10-13T22:18:45.461Z,12.30
2022-10-13T22:21:18.011Z,12.20
2022-10-13T22:23:45.566Z,12.20
2022-10-13T22:26:14.569Z,12.20
2022-10-13T22:28:42.651Z,12.20
2022-10-13T22:31:12.237Z,12.20
2022-10-13T22:33:42.551Z,12.20
2022-10-13T22:36:14.454Z,12.20
2022-10-13T22:38:41.976Z,12.30
2022-10-13T22:41:09.412Z,12.30
2022-10-13T22:43:36.815Z,12.30
2022-10-13T22:46:14.910Z,12.30
2022-10-13T22:48:42.104Z,12.30
2022-10-13T22:51:11.088Z,12.20
2022-10-13T22:53:38.699Z,12.30
2022-10-13T22:56:07.976Z,12.30
2022-10-13T22:58:35.529Z,12.30
2022-10-13T23:01:10.363Z,12.30
2022-10-13T23:03:37.750Z,12.30
2022-10-13T23:06:06.733Z,12.30
2022-10-13T23:08:34.493Z,12.30
2022-10-13T23:11:01.478Z,12.30
2022-10-13T23:13:28.382Z,12.30
2022-10-13T23:16:09.273Z,12.30
2022-10-13T23:18:38.346Z,12.30
2022-10-13T23:21:11.022Z,12.30
2022-10-13T23:23:38.212Z,12.40
2022-10-13T23:26:10.404Z,12.40
2022-10-13T23:28:38.181Z,12.40
2022-10-13T23:31:14.421Z,12.40
2022-10-13T23:33:41.867Z,12.40
2022-10-13T23:36:14.387Z,12.40
2022-10-13T23:38:41.944Z,12.40
2022-10-13T23:41:11.373Z,12.40
2022-10-13T23:43:38.779Z,12.40
2022-10-13T23:46:06.141Z,12.50
2022-10-13T23:48:33.157Z,12.50
2022-10-13T23:51:06.528Z,12.40
2022-10-13T23:53:38.384Z,12.40
2022-10-13T23:56:07.377Z,12.40
2022-10-13T23:58:39.072Z,12.50
